Time;durP1;ratioP1;P1;durP2;ratioP2;P2;SDS_P1;SDS_P2;PMS_P1;PMS_P2;Temp;Humidity;BMP_temperature;BMP_pressure;BME280_temperature;BME280_humidity;BME280_pressure;Samples;Min_cycle;Max_cycle;Signal;HPM_P1;HPM_P2
2021/07/01 00:01:52;;;;;;;13.23;9.30;;;;;;;16.40;82.46;100326.41;5076503;28;20203;-78
2021/07/01 00:04:19;;;;;;;12.90;9.50;;;;;;;16.34;82.20;100327.81;5075756;28;20240;-78
2021/07/01 00:06:45;;;;;;;12.30;8.87;;;;;;;16.32;82.41;100321.72;5057493;28;20207;-78
2021/07/01 00:09:15;;;;;;;15.03;9.07;;;;;;;16.29;82.24;100324.72;5067284;28;20291;-78
2021/07/01 00:11:42;;;;;;;10.97;8.63;;;;;;;16.27;82.24;100321.31;5072645;28;20268;-78
2021/07/01 00:14:09;;;;;;;10.33;7.93;;;;;;;16.24;82.39;100314.38;5054859;28;20271;-78
2021/07/01 00:16:35;;;;;;;14.97;9.23;;;;;;;16.24;82.41;100321.59;5073868;28;20245;-77
2021/07/01 00:19:04;;;;;;;11.40;7.70;;;;;;;16.21;82.28;100330.78;5087967;28;20203;-78
2021/07/01 00:21:31;;;;;;;9.47;7.33;;;;;;;16.18;82.24;100328.38;5062361;28;20210;-77
2021/07/01 00:23:58;;;;;;;11.30;7.43;;;;;;;16.13;82.05;100330.63;5095365;28;20210;-77
2021/07/01 00:26:25;;;;;;;9.17;6.67;;;;;;;16.11;82.09;100323.72;5083144;28;20288;-78
2021/07/01 00:28:51;;;;;;;8.60;6.80;;;;;;;16.08;82.03;100322.16;5094332;28;20201;-78
2021/07/01 00:31:18;;;;;;;10.53;6.80;;;;;;;16.05;82.12;100322.44;5091416;28;20232;-78
2021/07/01 00:33:44;;;;;;;12.80;7.13;;;;;;;16.02;81.97;100322.72;5079173;28;20235;-78
2021/07/01 00:36:12;;;;;;;9.13;6.77;;;;;;;16.02;82.09;100329.91;5076115;28;20208;-79
2021/07/01 00:38:39;;;;;;;11.73;6.47;;;;;;;15.99;82.00;100325.66;5076077;28;20231;-79
2021/07/01 00:41:05;;;;;;;9.47;7.40;;;;;;;15.97;81.95;100325.81;5080896;28;20226;-77
2021/07/01 00:43:32;;;;;;;9.33;7.50;;;;;;;15.95;81.99;100321.56;5082871;28;20633;-77
2021/07/01 00:45:58;;;;;;;10.97;8.37;;;;;;;15.91;81.88;100315.66;5078667;28;20210;-77
2021/07/01 00:48:25;;;;;;;9.23;8.23;;;;;;;15.87;81.71;100311.53;5073379;28;20218;-78
2021/07/01 00:50:53;;;;;;;10.43;8.77;;;;;;;15.82;81.65;100316.47;5066342;28;20230;-78
2021/07/01 00:53:21;;;;;;;12.23;9.20;;;;;;;15.78;81.29;100320.41;5071070;28;20234;-79
2021/07/01 00:55:48;;;;;;;11.13;8.40;;;;;;;15.75;81.28;100320.72;5077456;28;20214;-79
2021/07/01 00:58:15;;;;;;;10.37;9.30;;;;;;;15.74;81.33;100323.53;5066005;28;20207;-79
2021/07/01 01:00:50;;;;;;;10.50;9.50;;;;;;;15.72;81.39;100325.50;5069087;28;20230;-78
2021/07/01 01:03:17;;;;;;;9.70;8.70;;;;;;;15.68;81.41;100321.38;5074826;28;20627;-78
2021/07/01 01:05:43;;;;;;;10.93;8.60;;;;;;;15.64;81.52;100318.13;5089864;28;20227;-78
2021/07/01 01:08:10;;;;;;;9.40;8.00;;;;;;;15.60;81.64;100322.06;5080598;28;20196;-77
2021/07/01 01:10:38;;;;;;;11.13;8.27;;;;;;;15.58;81.61;100326.75;5090008;28;20227;-78
2021/07/01 01:13:06;;;;;;;10.17;7.47;;;;;;;15.56;81.53;100320.66;5088301;28;20670;-78
2021/07/01 01:15:32;;;;;;;7.10;6.40;;;;;;;15.53;81.48;100321.75;5074120;28;20259;-77
2021/07/01 01:17:59;;;;;;;7.50;6.03;;;;;;;15.50;81.44;100324.69;5074355;28;20209;-78
2021/07/01 01:20:26;;;;;;;7.60;6.27;;;;;;;15.45;81.44;100326.94;5074181;28;20584;-78
2021/07/01 01:22:53;;;;;;;7.07;5.83;;;;;;;15.43;81.43;100326.22;5075104;28;20291;-78
2021/07/01 01:25:20;;;;;;;6.30;5.30;;;;;;;15.40;81.67;100336.41;5081304;28;20201;-78
2021/07/01 01:27:46;;;;;;;5.27;4.77;;;;;;;15.35;81.86;100333.25;5082313;28;20211;-77
2021/07/01 01:30:14;;;;;;;5.43;4.83;;;;;;;15.31;81.40;100331.81;5075477;28;20753;-78
2021/07/01 01:32:41;;;;;;;6.07;4.73;;;;;;;15.25;81.50;100342.09;5077122;28;20706;-77
2021/07/01 01:35:09;;;;;;;5.73;4.60;;;;;;;15.23;81.68;100336.00;5076908;28;20236;-77
2021/07/01 01:37:35;;;;;;;4.87;4.37;;;;;;;15.21;81.41;100331.78;5076833;28;20212;-77
2021/07/01 01:40:04;;;;;;;6.57;4.30;;;;;;;15.17;81.62;100336.56;5074175;28;20229;-77
2021/07/01 01:42:30;;;;;;;5.80;4.23;;;;;;;15.15;81.79;100335.84;5067111;28;20205;-77
2021/07/01 01:44:57;;;;;;;6.17;4.73;;;;;;;15.14;81.64;100328.78;5067678;28;20208;-78
2021/07/01 01:47:23;;;;;;;7.50;4.73;;;;;;;15.10;81.54;100332.72;5069180;28;20204;-78
2021/07/01 01:49:50;;;;;;;5.70;5.10;;;;;;;15.06;81.88;100333.97;5069598;28;20230;-78
2021/07/01 01:52:18;;;;;;;6.70;4.90;;;;;;;15.03;81.98;100326.22;5078185;28;20659;-78
2021/07/01 01:54:45;;;;;;;5.17;4.63;;;;;;;15.02;82.14;100334.38;5073848;28;20224;-79
2021/07/01 01:57:13;;;;;;;6.23;5.10;;;;;;;15.00;82.12;100329.16;5075037;28;20204;-78
2021/07/01 01:59:39;;;;;;;9.33;5.10;;;;;;;14.99;82.35;100335.50;5074131;28;20228;-77
2021/07/01 02:02:06;;;;;;;7.13;6.07;;;;;;;14.98;82.36;100333.78;5074631;28;20215;-78
2021/07/01 02:04:32;;;;;;;7.07;6.07;;;;;;;14.98;82.27;100339.16;5083598;28;20205;-78
2021/07/01 02:06:59;;;;;;;6.57;5.90;;;;;;;14.97;82.71;100337.47;5075536;28;20208;-76
2021/07/01 02:09:26;;;;;;;6.50;5.90;;;;;;;14.97;82.43;100333.91;5054710;28;20221;-76
2021/07/01 02:11:52;;;;;;;7.07;5.90;;;;;;;14.94;82.47;100335.03;5056008;28;20228;-77
2021/07/01 02:14:20;;;;;;;7.17;5.93;;;;;;;14.90;82.27;100334.44;5060852;28;20235;-77
2021/07/01 02:16:47;;;;;;;7.13;5.80;;;;;;;14.87;82.41;100339.22;5074404;28;20574;-77
2021/07/01 02:19:13;;;;;;;6.77;5.67;;;;;;;14.83;82.77;100327.06;5076271;28;20204;-78
2021/07/01 02:21:40;;;;;;;8.80;6.37;;;;;;;14.80;82.43;100338.06;5073873;28;20215;-77
2021/07/01 02:24:06;;;;;;;8.07;5.93;;;;;;;14.76;82.84;100329.44;5080292;28;20204;-76
2021/07/01 02:26:33;;;;;;;7.53;5.83;;;;;;;14.74;82.69;100327.84;5076156;28;20216;-77
2021/07/01 02:29:00;;;;;;;7.43;5.87;;;;;;;14.71;82.57;100330.78;5088508;28;20567;-78
2021/07/01 02:31:27;;;;;;;7.00;6.30;;;;;;;14.69;82.45;100333.59;5076184;28;20585;-77
2021/07/01 02:33:54;;;;;;;7.97;6.03;;;;;;;14.67;83.00;100332.06;5056212;28;20236;-77
2021/07/01 02:36:20;;;;;;;6.30;5.70;;;;;;;14.64;82.72;100321.59;5068401;28;20207;-78
2021/07/01 02:38:47;;;;;;;9.43;6.67;;;;;;;14.63;82.90;100341.34;5076201;28;20208;-77
2021/07/01 02:41:13;;;;;;;6.87;5.90;;;;;;;14.61;83.14;100330.75;5065510;28;20229;-77
2021/07/01 02:43:40;;;;;;;7.77;6.57;;;;;;;14.57;82.83;100338.19;5076318;28;20208;-77
2021/07/01 02:46:06;;;;;;;8.80;6.67;;;;;;;14.58;82.93;100334.53;5079943;28;20206;-77
2021/07/01 02:48:34;;;;;;;8.20;6.47;;;;;;;14.58;83.05;100331.84;5076764;28;20204;-77
2021/07/01 02:51:01;;;;;;;7.73;6.93;;;;;;;14.56;83.25;100336.47;5076291;28;20221;-77
2021/07/01 02:53:27;;;;;;;8.97;7.07;;;;;;;14.56;83.78;100328.44;5076129;28;20208;-77
2021/07/01 02:55:54;;;;;;;6.90;6.20;;;;;;;14.56;83.41;100325.75;5075876;28;20208;-78
2021/07/01 02:58:20;;;;;;;6.80;6.20;;;;;;;14.56;83.52;100330.28;5075982;28;20205;-77
2021/07/01 03:00:47;;;;;;;7.47;6.40;;;;;;;14.56;83.80;100320.41;5075812;28;20232;-77
2021/07/01 03:03:13;;;;;;;7.87;6.70;;;;;;;14.57;83.74;100327.47;5076482;28;20208;-77
2021/07/01 03:05:41;;;;;;;7.20;6.50;;;;;;;14.57;83.82;100322.09;5077429;28;20207;-77
2021/07/01 03:08:08;;;;;;;7.00;6.40;;;;;;;14.55;83.70;100318.69;5077449;28;20185;-77
2021/07/01 03:10:34;;;;;;;7.27;6.37;;;;;;;14.51;83.56;100317.25;5077992;28;20232;-78
2021/07/01 03:13:01;;;;;;;7.60;6.27;;;;;;;14.46;83.59;100313.28;5091160;28;20205;-78
2021/07/01 03:15:27;;;;;;;7.93;6.27;;;;;;;14.41;83.71;100320.84;5096946;28;20224;-78
2021/07/01 03:17:54;;;;;;;6.40;5.77;;;;;;;14.36;83.34;100323.88;5077277;28;20212;-77
2021/07/01 03:20:20;;;;;;;7.50;6.57;;;;;;;14.32;83.36;100322.47;5076878;28;20229;-78
2021/07/01 03:22:48;;;;;;;10.97;7.80;;;;;;;14.31;83.60;100310.06;5077984;28;20201;-78
2021/07/01 03:25:15;;;;;;;8.57;7.57;;;;;;;14.28;83.54;100321.00;5077017;28;20564;-77
2021/07/01 03:27:41;;;;;;;8.50;7.60;;;;;;;14.27;83.41;100322.00;5077561;28;20209;-78
2021/07/01 03:30:09;;;;;;;10.00;7.53;;;;;;;14.27;83.28;100316.63;5074566;28;20229;-78
2021/07/01 03:32:35;;;;;;;8.13;7.07;;;;;;;14.25;83.51;100318.59;5057396;28;20285;-78
2021/07/01 03:35:02;;;;;;;9.33;7.60;;;;;;;14.25;83.39;100318.59;5057429;28;20225;-77
2021/07/01 03:37:28;;;;;;;10.03;8.20;;;;;;;14.25;83.75;100322.13;5058119;28;20206;-79
2021/07/01 03:39:56;;;;;;;10.07;9.07;;;;;;;14.27;83.43;100318.47;5058608;28;20226;-78
2021/07/01 03:42:23;;;;;;;10.00;8.90;;;;;;;14.25;83.57;100310.56;5064309;28;20710;-78
2021/07/01 03:44:50;;;;;;;11.53;10.10;;;;;;;14.23;83.50;100317.88;5078438;28;20201;-79
2021/07/01 03:47:16;;;;;;;10.60;9.00;;;;;;;14.22;83.67;100310.81;5077787;28;20292;-78
2021/07/01 03:49:43;;;;;;;9.83;7.87;;;;;;;14.19;83.68;100311.06;5079396;28;20308;-79
2021/07/01 03:52:10;;;;;;;9.23;8.07;;;;;;;14.16;83.27;100308.63;5062379;28;20208;-79
2021/07/01 03:54:36;;;;;;;11.93;9.17;;;;;;;14.13;83.32;100306.22;5092281;28;20227;-78
2021/07/01 03:57:05;;;;;;;11.57;8.97;;;;;;;14.11;83.90;100309.03;5083195;28;20205;-76
2021/07/01 03:59:32;;;;;;;9.53;8.20;;;;;;;14.08;83.48;100303.09;5067951;28;20305;-78
2021/07/01 04:01:58;;;;;;;10.43;9.17;;;;;;;14.05;83.54;100306.84;5072055;28;20564;-79
2021/07/01 04:04:25;;;;;;;11.10;8.27;;;;;;;14.03;83.70;100307.97;5076804;28;20630;-79
2021/07/01 04:06:51;;;;;;;10.97;8.80;;;;;;;14.00;83.31;100298.34;5075705;28;20205;-79
2021/07/01 04:09:18;;;;;;;11.60;8.67;;;;;;;14.00;83.79;100302.84;5065646;28;20205;-79
2021/07/01 04:11:44;;;;;;;10.43;8.20;;;;;;;13.97;83.88;100295.97;5077314;28;20232;-78
2021/07/01 04:14:17;;;;;;;9.93;8.30;;;;;;;13.96;83.44;100296.09;5091001;28;20287;-79
2021/07/01 04:16:44;;;;;;;9.30;8.17;;;;;;;13.94;83.48;100292.66;5084860;28;20204;-78
2021/07/01 04:19:10;;;;;;;9.87;8.57;;;;;;;13.93;83.59;100293.66;5076132;28;20201;-78
2021/07/01 04:21:37;;;;;;;10.57;8.83;;;;;;;13.90;83.49;100292.91;5067075;28;20568;-79
2021/07/01 04:24:03;;;;;;;10.70;8.90;;;;;;;13.89;83.81;100301.06;5071048;28;20209;-78
2021/07/01 04:26:30;;;;;;;10.77;7.63;;;;;;;13.89;83.87;100301.94;5083352;28;20712;-78
2021/07/01 04:28:57;;;;;;;10.50;9.17;;;;;;;13.88;83.56;100302.91;5070690;28;20647;-79
2021/07/01 04:31:25;;;;;;;11.00;8.33;;;;;;;13.89;83.91;100295.72;5069671;28;20627;-78
2021/07/01 04:33:51;;;;;;;12.17;8.60;;;;;;;13.88;84.13;100297.56;5075702;28;20208;-78
2021/07/01 04:36:18;;;;;;;8.90;8.00;;;;;;;13.87;83.73;100305.69;5078008;28;20208;-79
2021/07/01 04:38:45;;;;;;;9.63;7.97;;;;;;;13.87;83.81;100309.22;5079621;28;20215;-79
2021/07/01 04:41:13;;;;;;;11.23;8.90;;;;;;;13.87;84.12;100311.91;5079474;28;20231;-78
2021/07/01 04:43:40;;;;;;;12.03;8.43;;;;;;;13.88;84.23;100320.78;5077759;28;20463;-79
2021/07/01 04:46:06;;;;;;;11.40;8.30;;;;;;;13.89;83.97;100315.31;5078779;28;20201;-78
2021/07/01 04:48:34;;;;;;;8.40;7.60;;;;;;;13.89;84.14;100315.31;5080684;28;20564;-78
2021/07/01 04:51:01;;;;;;;9.87;8.30;;;;;;;13.89;84.24;100320.66;5078372;28;20225;-79
2021/07/01 04:53:27;;;;;;;8.90;8.00;;;;;;;13.89;84.06;100325.16;5079489;28;20211;-80
2021/07/01 04:55:54;;;;;;;10.87;7.93;;;;;;;13.89;84.32;100318.00;5078670;28;20224;-79
2021/07/01 04:58:20;;;;;;;9.27;8.00;;;;;;;13.90;84.35;100318.84;5079799;28;20628;-80
2021/07/01 05:00:48;;;;;;;9.43;8.00;;;;;;;13.90;84.24;100311.66;5079129;28;20311;-79
2021/07/01 05:03:14;;;;;;;8.57;7.00;;;;;;;13.92;84.25;100299.97;5079189;28;20219;-78
2021/07/01 05:05:42;;;;;;;10.00;6.57;;;;;;;13.90;84.36;100300.09;5078501;28;20791;-79
2021/07/01 05:08:09;;;;;;;8.17;6.90;;;;;;;13.89;84.34;100304.59;5078373;28;20201;-79
2021/07/01 05:10:36;;;;;;;8.80;6.13;;;;;;;13.89;84.55;100307.28;5079324;28;20225;-78
2021/07/01 05:13:03;;;;;;;8.43;6.47;;;;;;;13.88;84.33;100308.25;5079494;28;20208;-78
2021/07/01 05:15:29;;;;;;;7.57;6.40;;;;;;;13.87;84.64;100314.59;5078568;28;20224;-78
2021/07/01 05:17:56;;;;;;;6.93;6.23;;;;;;;13.87;84.43;100319.09;5079611;28;20208;-79
2021/07/01 05:20:22;;;;;;;7.47;6.10;;;;;;;13.88;84.37;100320.78;5079391;28;20221;-79
2021/07/01 05:22:51;;;;;;;7.20;6.27;;;;;;;13.88;84.68;100318.13;5085179;28;20205;-79
2021/07/01 05:25:17;;;;;;;9.23;6.80;;;;;;;13.88;84.92;100327.00;5080014;28;20269;-79
2021/07/01 05:27:44;;;;;;;8.50;6.47;;;;;;;13.89;84.81;100325.16;5089015;28;20209;-79
2021/07/01 05:30:12;;;;;;;7.80;5.70;;;;;;;13.91;84.70;100328.56;5077917;28;20228;-79
2021/07/01 05:32:38;;;;;;;7.83;5.60;;;;;;;13.89;84.63;100312.63;5065791;28;20624;-79
2021/07/01 05:35:06;;;;;;;6.47;5.83;;;;;;;13.90;85.01;100311.66;5074875;28;20220;-79
2021/07/01 05:37:33;;;;;;;7.87;6.23;;;;;;;13.91;84.83;100296.44;5070903;28;20215;-79
2021/07/01 05:40:01;;;;;;;6.17;5.57;;;;;;;13.92;84.67;100305.34;5072765;28;20335;-79
2021/07/01 05:42:28;;;;;;;7.67;6.20;;;;;;;13.93;85.14;100307.03;5059333;28;20210;-79
2021/07/01 05:44:54;;;;;;;8.10;6.03;;;;;;;13.90;84.84;100306.31;5058346;28;20205;-77
2021/07/01 05:47:21;;;;;;;7.13;5.70;;;;;;;13.92;85.05;100311.53;5084219;28;20295;-78
2021/07/01 05:49:48;;;;;;;6.43;5.83;;;;;;;13.91;85.25;100325.91;5079488;28;20582;-77
2021/07/01 05:52:19;;;;;;;6.53;5.63;;;;;;;13.92;85.41;100318.72;5079252;28;20287;-78
2021/07/01 05:54:54;;;;;;;7.20;5.90;;;;;;;13.93;84.89;100325.78;5079610;28;20316;-78
2021/07/01 05:57:23;;;;;;;6.87;6.20;;;;;;;13.92;85.55;100324.06;5083191;28;20193;-79
2021/07/01 05:59:49;;;;;;;6.60;5.70;;;;;;;13.91;85.28;100325.91;5082892;28;20311;-78
2021/07/01 06:02:16;;;;;;;8.33;6.23;;;;;;;13.89;85.16;100331.38;5073533;28;20204;-78
2021/07/01 06:04:42;;;;;;;6.77;6.07;;;;;;;13.90;85.88;100326.88;5093167;28;20202;-79
2021/07/01 06:07:09;;;;;;;6.53;5.83;;;;;;;13.93;85.71;100321.28;5083188;28;20212;-78
2021/07/01 06:09:38;;;;;;;6.17;5.40;;;;;;;13.94;86.00;100322.97;5083331;28;20292;-78
2021/07/01 06:12:05;;;;;;;6.17;5.57;;;;;;;13.96;85.63;100323.69;5083247;28;20560;-78
2021/07/01 06:14:33;;;;;;;7.07;5.57;;;;;;;13.95;85.70;100313.97;5083464;28;20215;-78
2021/07/01 06:17:00;;;;;;;5.93;5.33;;;;;;;13.96;85.87;100320.16;5082839;28;20584;-78
2021/07/01 06:19:27;;;;;;;5.63;5.07;;;;;;;13.94;85.86;100317.63;5063461;28;20652;-77
2021/07/01 06:21:53;;;;;;;6.67;6.03;;;;;;;13.93;85.73;100315.91;5062665;28;20676;-79
2021/07/01 06:24:20;;;;;;;6.83;5.37;;;;;;;13.92;85.80;100322.25;5062973;28;20563;-78
2021/07/01 06:26:48;;;;;;;7.20;5.10;;;;;;;13.90;86.12;100322.38;5098185;28;20559;-77
2021/07/01 06:29:16;;;;;;;5.67;5.17;;;;;;;13.90;86.42;100322.38;5081953;28;20701;-78
2021/07/01 06:31:45;;;;;;;6.50;5.90;;;;;;;13.90;86.52;100325.03;5065807;28;20213;-78
2021/07/01 06:34:13;;;;;;;9.07;6.43;;;;;;;13.90;86.36;100324.19;5073007;28;20217;-78
2021/07/01 06:36:42;;;;;;;6.40;5.00;;;;;;;13.92;86.25;100329.44;5077386;28;20579;-78
2021/07/01 06:39:09;;;;;;;8.13;5.60;;;;;;;13.93;86.50;100325.78;5075735;28;20212;-78
2021/07/01 06:41:37;;;;;;;5.97;4.93;;;;;;;13.94;86.38;100312.25;5075994;28;20197;-78
2021/07/01 06:44:07;;;;;;;5.70;4.43;;;;;;;13.96;86.80;100321.03;5082475;28;20205;-78
2021/07/01 06:46:34;;;;;;;7.03;5.50;;;;;;;13.96;86.39;100310.31;5083018;28;20547;-78
2021/07/01 06:49:02;;;;;;;5.33;4.43;;;;;;;13.97;86.47;100303.97;5077696;28;20231;-78
2021/07/01 06:51:37;;;;;;;4.70;4.30;;;;;;;13.99;86.60;100314.53;5073352;28;20231;-77
2021/07/01 06:54:04;;;;;;;5.23;4.73;;;;;;;13.98;86.77;100302.13;5082175;28;20681;-78
2021/07/01 06:56:38;;;;;;;5.63;5.10;;;;;;;13.99;87.04;100310.03;5072014;28;20228;-78
2021/07/01 06:59:06;;;;;;;5.00;4.50;;;;;;;14.01;86.65;100312.59;5088637;28;20823;-78
2021/07/01 07:01:33;;;;;;;5.67;5.17;;;;;;;14.01;87.06;100304.56;5089751;28;20229;-78
2021/07/01 07:04:02;;;;;;;6.43;5.27;;;;;;;14.01;86.54;100312.59;5082068;28;20207;-78
2021/07/01 07:06:28;;;;;;;7.33;4.80;;;;;;;14.03;87.11;100307.97;5080726;28;20257;-77
2021/07/01 07:08:56;;;;;;;5.97;5.20;;;;;;;14.04;86.72;100307.84;5082449;28;20541;-78
2021/07/01 07:11:23;;;;;;;4.83;4.30;;;;;;;14.06;87.07;100305.03;5082748;28;20694;-77
2021/07/01 07:13:49;;;;;;;5.47;4.30;;;;;;;14.07;86.91;100307.59;5086674;28;20215;-78
2021/07/01 07:16:17;;;;;;;4.30;3.90;;;;;;;14.08;87.09;100311.97;5081816;28;20217;-78
2021/07/01 07:18:45;;;;;;;5.20;4.70;;;;;;;14.08;87.05;100303.94;5068539;28;20202;-77
2021/07/01 07:21:17;;;;;;;4.07;3.63;;;;;;;14.09;86.91;100304.78;5061940;28;20218;-77
2021/07/01 07:23:47;;;;;;;4.73;3.83;;;;;;;14.12;86.57;100312.56;5062737;28;20205;-76
2021/07/01 07:26:16;;;;;;;4.77;4.20;;;;;;;14.11;86.64;100298.31;5081890;28;20292;-77
2021/07/01 07:28:44;;;;;;;6.20;4.40;;;;;;;14.16;86.54;100311.31;5067468;28;20219;-78
2021/07/01 07:31:17;;;;;;;4.70;3.73;;;;;;;14.19;86.73;100305.69;5081581;28;20587;-78
2021/07/01 07:33:44;;;;;;;4.80;4.40;;;;;;;14.23;86.46;100313.34;5083139;28;20201;-78
2021/07/01 07:36:13;;;;;;;4.80;4.27;;;;;;;14.27;86.79;100319.31;5091265;28;20222;-78
2021/07/01 07:38:40;;;;;;;3.70;3.30;;;;;;;14.31;86.53;100315.41;5095092;28;20216;-78
2021/07/01 07:41:07;;;;;;;5.50;3.47;;;;;;;14.32;86.41;100314.44;5066597;28;20589;-78
2021/07/01 07:43:38;;;;;;;4.10;3.70;;;;;;;14.35;86.45;100311.47;5067093;28;20205;-78
2021/07/01 07:46:04;;;;;;;5.03;4.00;;;;;;;14.38;86.56;100319.25;5068990;28;20201;-78
2021/07/01 07:48:31;;;;;;;4.93;3.77;;;;;;;14.42;86.51;100307.34;5081068;28;20201;-77
2021/07/01 07:50:57;;;;;;;4.13;3.70;;;;;;;14.44;86.65;100325.97;5081829;28;20224;-78
2021/07/01 07:53:30;;;;;;;4.10;3.70;;;;;;;14.44;86.67;100321.44;5088989;28;20223;-78
2021/07/01 07:56:02;;;;;;;4.17;3.77;;;;;;;14.45;86.63;100322.31;5096032;28;20225;-78
2021/07/01 07:58:31;;;;;;;4.63;3.87;;;;;;;14.47;86.43;100321.19;5081067;28;20647;-78
2021/07/01 08:00:58;;;;;;;4.83;3.53;;;;;;;14.49;86.68;100326.44;5074162;28;20278;-77
2021/07/01 08:03:25;;;;;;;5.13;2.93;;;;;;;14.49;86.52;100313.03;5068293;28;20201;-77
2021/07/01 08:05:55;;;;;;;4.23;3.37;;;;;;;14.50;86.73;100315.59;5081113;28;20590;-78
2021/07/01 08:08:24;;;;;;;3.83;3.27;;;;;;;14.49;86.65;100307.69;5097391;28;20650;-77
2021/07/01 08:10:53;;;;;;;3.27;2.97;;;;;;;14.49;85.94;100313.88;5064560;28;20228;-78
2021/07/01 08:13:21;;;;;;;3.53;3.23;;;;;;;14.49;86.37;100313.03;5082061;28;20304;-78
2021/07/01 08:15:48;;;;;;;3.93;3.40;;;;;;;14.49;86.29;100326.44;5082157;28;20312;-78
2021/07/01 08:18:25;;;;;;;4.23;3.83;;;;;;;14.50;86.07;100320.94;5089919;28;20197;-78
2021/07/01 08:20:52;;;;;;;4.10;3.70;;;;;;;14.51;86.10;100329.84;5079187;28;20312;-77
2021/07/01 08:23:19;;;;;;;4.40;3.53;;;;;;;14.53;86.59;100322.50;5078644;28;20204;-77
2021/07/01 08:25:47;;;;;;;3.67;3.37;;;;;;;14.55;86.42;100317.84;5069975;28;20651;-77
2021/07/01 08:28:19;;;;;;;4.87;3.97;;;;;;;14.57;86.19;100327.47;5073353;28;20209;-78
2021/07/01 08:30:46;;;;;;;4.13;3.73;;;;;;;14.59;86.53;100327.34;5063561;28;20221;-78
2021/07/01 08:33:17;;;;;;;6.10;3.70;;;;;;;14.61;86.29;100322.69;5059667;28;20205;-78
2021/07/01 08:35:44;;;;;;;4.53;3.77;;;;;;;14.64;86.70;100329.63;5078547;28;20219;-78
2021/07/01 08:38:10;;;;;;;4.73;4.17;;;;;;;14.66;86.75;100330.34;5080074;28;20203;-78
2021/07/01 08:40:39;;;;;;;4.43;3.53;;;;;;;14.69;86.72;100330.09;5062644;28;20227;-78
2021/07/01 08:43:08;;;;;;;5.67;4.47;;;;;;;14.72;86.77;100327.13;5078073;28;20232;-78
2021/07/01 08:45:51;;;;;;;5.10;4.03;;;;;;;14.74;86.39;100338.56;5076218;28;20288;-78
2021/07/01 08:48:22;;;;;;;5.10;4.13;;;;;;;14.75;86.70;100340.28;5083582;28;20200;-78
2021/07/01 08:50:54;;;;;;;5.17;4.60;;;;;;;14.77;86.79;100341.00;5092594;28;20231;-78
2021/07/01 08:53:36;;;;;;;5.83;4.63;;;;;;;14.78;86.92;100340.03;5088790;28;20698;-79
2021/07/01 08:56:04;;;;;;;4.70;4.30;;;;;;;14.79;86.64;100341.72;5077843;28;20219;-78
2021/07/01 08:58:38;;;;;;;4.67;4.10;;;;;;;14.82;86.88;100336.09;5095645;28;20295;-78
2021/07/01 09:01:06;;;;;;;4.20;3.80;;;;;;;14.83;86.63;100335.13;5087808;28;20215;-78
2021/07/01 09:03:35;;;;;;;4.20;3.80;;;;;;;14.84;86.83;100334.13;5081232;28;20205;-78
2021/07/01 09:06:04;;;;;;;4.10;3.37;;;;;;;14.84;86.50;100337.69;5074804;28;20202;-78
2021/07/01 09:08:32;;;;;;;5.17;3.90;;;;;;;14.85;86.55;100341.22;5074273;28;20228;-78
2021/07/01 09:11:03;;;;;;;4.00;3.60;;;;;;;14.85;86.92;100338.53;5079979;28;20221;-78
2021/07/01 09:13:32;;;;;;;5.43;3.83;;;;;;;14.87;86.55;100333.84;5066656;28;20202;-78
2021/07/01 09:15:59;;;;;;;3.97;3.50;;;;;;;14.88;86.76;100335.56;5081944;28;20216;-77
2021/07/01 09:18:28;;;;;;;3.93;3.50;;;;;;;14.91;86.99;100336.13;5087861;28;20298;-78
2021/07/01 09:20:56;;;;;;;5.50;3.40;;;;;;;14.93;86.72;100344.91;5073123;28;20227;-78
2021/07/01 09:23:23;;;;;;;3.30;3.00;;;;;;;14.96;86.85;100340.25;5087730;28;20292;-78
2021/07/01 09:25:54;;;;;;;3.27;2.90;;;;;;;15.00;86.93;100344.38;5088101;28;20244;-78
2021/07/01 09:28:21;;;;;;;3.60;3.23;;;;;;;15.02;86.74;100345.97;5079268;28;20570;-77
2021/07/01 09:30:48;;;;;;;4.03;2.70;;;;;;;15.06;86.70;100343.84;5078781;28;20220;-77
2021/07/01 09:33:15;;;;;;;4.30;3.20;;;;;;;15.05;86.58;100343.00;5070628;28;20634;-77
2021/07/01 09:35:44;;;;;;;3.03;2.67;;;;;;;15.08;86.82;100348.09;5059082;28;20236;-78
2021/07/01 09:38:11;;;;;;;3.93;2.97;;;;;;;15.08;86.75;100361.50;5059872;28;20212;-78
2021/07/01 09:40:39;;;;;;;2.73;2.37;;;;;;;15.09;86.58;100354.31;5075112;28;20232;-78
2021/07/01 09:43:07;;;;;;;3.30;2.50;;;;;;;15.09;86.27;100351.63;5077676;28;20557;-78
2021/07/01 09:45:36;;;;;;;2.97;2.40;;;;;;;15.11;86.35;100352.34;5084369;28;20304;-78
2021/07/01 09:48:06;;;;;;;3.13;2.23;;;;;;;15.12;86.13;100346.00;5075773;28;20196;-79
2021/07/01 09:50:35;;;;;;;2.10;1.90;;;;;;;15.12;86.29;100348.69;5084472;28;20232;-79
2021/07/01 09:53:04;;;;;;;2.83;2.27;;;;;;;15.12;86.13;100354.91;5079544;28;20213;-78
2021/07/01 09:55:33;;;;;;;2.70;2.13;;;;;;;15.14;86.04;100355.63;5078787;28;20212;-79
2021/07/01 09:58:04;;;;;;;2.07;1.90;;;;;;;15.15;86.83;100357.31;5069562;28;20204;-77
2021/07/01 10:00:31;;;;;;;2.10;1.90;;;;;;;15.15;86.33;100349.28;5061280;28;20233;-77
2021/07/01 10:03:06;;;;;;;2.23;1.90;;;;;;;15.15;86.31;100351.94;5068547;28;20221;-78
2021/07/01 10:05:33;;;;;;;2.33;1.63;;;;;;;15.16;86.43;100355.47;5095841;28;20216;-78
2021/07/01 10:08:00;;;;;;;3.17;1.67;;;;;;;15.17;86.16;100358.03;5085908;28;20198;-78
2021/07/01 10:10:28;;;;;;;2.97;2.00;;;;;;;15.18;86.37;100350.84;5076492;28;20221;-78
2021/07/01 10:12:56;;;;;;;2.27;2.07;;;;;;;15.20;86.28;100355.09;5075319;28;20205;-78
2021/07/01 10:15:27;;;;;;;2.00;1.80;;;;;;;15.22;86.42;100361.19;5065293;28;20573;-78
2021/07/01 10:18:09;;;;;;;2.87;1.80;;;;;;;15.23;86.30;100362.84;5068937;28;20221;-78
2021/07/01 10:20:37;;;;;;;1.50;1.40;;;;;;;15.24;86.33;100353.81;5083882;28;20216;-77
2021/07/01 10:23:04;;;;;;;2.10;1.63;;;;;;;15.25;86.39;100350.16;5079087;28;20209;-77
2021/07/01 10:25:33;;;;;;;2.07;1.47;;;;;;;15.28;86.64;100349.88;5063935;28;20205;-78
2021/07/01 10:28:11;;;;;;;2.60;1.63;;;;;;;15.30;86.77;100347.06;5077146;28;20202;-77
2021/07/01 10:30:39;;;;;;;1.60;1.50;;;;;;;15.33;86.60;100352.19;5073332;28;20303;-78
2021/07/01 10:33:06;;;;;;;2.10;1.60;;;;;;;15.35;86.70;100354.72;5072820;28;20289;-78
2021/07/01 10:35:34;;;;;;;1.97;1.77;;;;;;;15.35;86.61;100355.56;5071858;28;20637;-78
2021/07/01 10:38:07;;;;;;;1.70;1.60;;;;;;;15.36;86.61;100357.28;5083107;28;20701;-78
2021/07/01 10:40:37;;;;;;;1.77;1.60;;;;;;;15.39;86.48;100350.78;5079510;28;20229;-78
2021/07/01 10:43:05;;;;;;;1.87;1.43;;;;;;;15.40;85.98;100357.88;5083358;28;20569;-78
2021/07/01 10:45:32;;;;;;;1.87;1.57;;;;;;;15.40;86.09;100356.03;5082090;28;20343;-78
2021/07/01 10:48:13;;;;;;;2.10;1.67;;;;;;;15.40;85.94;100358.72;5082564;28;20201;-78
2021/07/01 10:50:41;;;;;;;1.70;1.60;;;;;;;15.43;86.18;100352.19;5067237;28;20221;-78
2021/07/01 10:53:26;;;;;;;2.47;1.83;;;;;;;15.45;86.09;100358.28;5084179;28;20205;-78
2021/07/01 10:55:55;;;;;;;2.03;1.70;;;;;;;15.47;86.13;100359.00;5066004;28;20217;-78
2021/07/01 10:58:22;;;;;;;1.80;1.60;;;;;;;15.50;86.33;100358.75;5065728;28;20216;-78
2021/07/01 11:00:49;;;;;;;2.27;1.43;;;;;;;15.51;86.19;100358.59;5094504;28;20224;-78
2021/07/01 11:03:20;;;;;;;1.40;1.30;;;;;;;15.51;86.02;100350.56;5081084;28;20205;-79
2021/07/01 11:05:47;;;;;;;1.57;1.30;;;;;;;15.52;86.22;100357.63;5081169;28;20198;-78
2021/07/01 11:08:24;;;;;;;1.53;1.33;;;;;;;15.54;85.93;100354.81;5087957;28;20270;-79
2021/07/01 11:10:52;;;;;;;2.30;1.33;;;;;;;15.57;86.04;100354.56;5091624;28;20216;-79
2021/07/01 11:13:23;;;;;;;1.20;1.10;;;;;;;15.58;85.83;100356.28;5086923;28;20210;-79
2021/07/01 11:16:05;;;;;;;1.70;1.23;;;;;;;15.59;85.96;100364.16;5080081;28;20228;-79
2021/07/01 11:18:36;;;;;;;1.73;1.40;;;;;;;15.60;86.01;100365.00;5079846;28;20272;-78
2021/07/01 11:21:14;;;;;;;1.10;1.00;;;;;;;15.62;85.86;100365.72;5060791;28;20225;-78
2021/07/01 11:23:42;;;;;;;1.33;1.00;;;;;;;15.66;86.15;100366.31;5070972;28;20208;-79
2021/07/01 11:26:29;;;;;;;1.20;1.00;;;;;;;15.68;85.94;100362.50;5092801;28;20287;-78
2021/07/01 11:28:59;;;;;;;0.80;0.77;;;;;;;15.71;86.00;100367.59;5091740;28;20201;-79